Dunlo, PA (15930)

9:54 AM EDT on September 17, 2014 (GMT -0400)
Fifty Acre Road, Adams Twp | Change Station
CLOSE
Current Station
Personal Weather Station
Location: Johnstown, PA
Elevation: 2122 ft
Nearby Weather Stations

Elev 2122 ft 40.31 °N, 78.81 °W | Updated 3 minutes ago

Partly Cloudy
Partly Cloudy
55.9 °F
Feels Like 55.9 °F
N
1.0
Wind Variable Wind from West
Gusts 2.0 mph

Today
High -- | Low -- °F
--% Chance of Precip.
Yesterday
High -- | Low -- °F
Precip. -- in
6:57 AM 7:20 PM
Waning Crescent, 36% visible
Pressure 30.09 in
Visibility 4.0 miles
Clouds Scattered Clouds 3900 ft
Dew Point 54 °F
Humidity 95%
Rainfall 0.00 in
Snow Depth Not available.
UV 1 out of 12
Pollen 3.40 out of 12
Air Quality Not available.
Flu Activity Not available.
METAR KJST 171254Z AUTO 22005KT 4SM BR SCT039 09/08 A3008 RMK AO2 SLP190 T00940078

More Conditions Fewer Conditions

Pressure 30.09 in
Visibility 4.0 miles
Clouds Scattered Clouds 3900 ft
Dew Point 54 °F
Humidity 95%
Rainfall 0.00 in
Snow Depth Not available.
UV 1 out of 12
Pollen 3.40 out of 12
Air Quality Not available.
Flu Activity Not available.
METAR KJST 171254Z AUTO 22005KT 4SM BR SCT039 09/08 A3008 RMK AO2 SLP190 T00940078

More Conditions Fewer Conditions

10-Day Weather Forecast

Almanac

Astronomy

Sep. 17, 2014 Rise Set
Actual Time 6:57 AM EDT 7:20 PM EDT
Civil Twilight 6:30 AM EDT 7:47 PM EDT
Nautical Twilight 5:58 AM EDT 8:19 PM EDT
Astronomical Twilight 5:25 AM EDT 8:52 PM EDT
Moon 12:55 AM EDT 3:29 PM EDT
Length of Visible Light 13h 17m
Length of Day
12h 22m
Tomorrow will be 2m 38s shorter.
Waning Crescent, 36% of the Moon is Illuminated
Today
Waning Crescent
Sep 24
New
Oct 1
First Quarter
Oct 8
Full
Oct 15
Last Quarter

Today's Extremes

State Highs State Lows

Community

WunderPhotos

Upload Photos

1,754,029 photos uploaded!

WunderBlogs® & News

Nearby

Snow Depth

Station Depth Elevation
No new snow has been reported.

Earthquake Activity

City Distance Mag. Time & Date
No recent earthquake activity has been reported nearby.
Minimum magnitude displayed is 2.5.

Coastal Water Temperatures

Place Temperature
No Stations Reporting

Nearby Weather Stations